sensor_id;sensor_type;location;lat;lon;timestamp;P1;durP1;ratioP1;P2;durP2;ratioP2
6689;SDS011;3382;51.576;8.076;2023-06-10T00:00:11;10.73;;;7.80;;
6689;SDS011;3382;51.576;8.076;2023-06-10T00:02:39;10.30;;;8.07;;
6689;SDS011;3382;51.576;8.076;2023-06-10T00:05:05;9.03;;;8.03;;
6689;SDS011;3382;51.576;8.076;2023-06-10T00:07:32;9.23;;;7.90;;
6689;SDS011;3382;51.576;8.076;2023-06-10T00:09:58;9.43;;;8.23;;
6689;SDS011;3382;51.576;8.076;2023-06-10T00:12:24;9.40;;;8.40;;
6689;SDS011;3382;51.576;8.076;2023-06-10T00:14:50;9.57;;;8.07;;
6689;SDS011;3382;51.576;8.076;2023-06-10T00:17:18;7.63;;;6.80;;
6689;SDS011;3382;51.576;8.076;2023-06-10T00:19:44;9.40;;;7.90;;
6689;SDS011;3382;51.576;8.076;2023-06-10T00:22:11;10.47;;;8.23;;
6689;SDS011;3382;51.576;8.076;2023-06-10T00:24:37;9.00;;;8.10;;
6689;SDS011;3382;51.576;8.076;2023-06-10T00:27:03;9.87;;;7.47;;
6689;SDS011;3382;51.576;8.076;2023-06-10T00:29:29;8.97;;;8.03;;
6689;SDS011;3382;51.576;8.076;2023-06-10T00:31:54;9.70;;;8.57;;
6689;SDS011;3382;51.576;8.076;2023-06-10T00:34:22;9.37;;;8.47;;
6689;SDS011;3382;51.576;8.076;2023-06-10T00:36:51;9.47;;;8.63;;
6689;SDS011;3382;51.576;8.076;2023-06-10T00:39:16;11.03;;;8.00;;
6689;SDS011;3382;51.576;8.076;2023-06-10T00:41:42;10.07;;;7.97;;
6689;SDS011;3382;51.576;8.076;2023-06-10T00:44:07;12.13;;;9.20;;
6689;SDS011;3382;51.576;8.076;2023-06-10T00:46:33;9.27;;;8.37;;
6689;SDS011;3382;51.576;8.076;2023-06-10T00:48:59;10.83;;;8.80;;
6689;SDS011;3382;51.576;8.076;2023-06-10T00:51:25;9.43;;;8.53;;
6689;SDS011;3382;51.576;8.076;2023-06-10T00:53:51;9.90;;;8.50;;
6689;SDS011;3382;51.576;8.076;2023-06-10T00:56:18;9.87;;;8.67;;
6689;SDS011;3382;51.576;8.076;2023-06-10T00:58:43;11.90;;;7.93;;
6689;SDS011;3382;51.576;8.076;2023-06-10T01:01:10;12.97;;;8.50;;
6689;SDS011;3382;51.576;8.076;2023-06-10T01:03:36;11.00;;;9.23;;
6689;SDS011;3382;51.576;8.076;2023-06-10T01:09:09;9.43;;;8.53;;
6689;SDS011;3382;51.576;8.076;2023-06-10T01:11:52;10.50;;;9.40;;
6689;SDS011;3382;51.576;8.076;2023-06-10T01:14:26;12.10;;;9.40;;
6689;SDS011;3382;51.576;8.076;2023-06-10T01:16:53;12.67;;;8.60;;
6689;SDS011;3382;51.576;8.076;2023-06-10T01:19:19;12.13;;;9.60;;
6689;SDS011;3382;51.576;8.076;2023-06-10T01:21:44;10.27;;;9.10;;
6689;SDS011;3382;51.576;8.076;2023-06-10T01:24:13;10.77;;;9.47;;
6689;SDS011;3382;51.576;8.076;2023-06-10T01:26:43;12.20;;;10.50;;
6689;SDS011;3382;51.576;8.076;2023-06-10T01:29:20;11.40;;;9.67;;
6689;SDS011;3382;51.576;8.076;2023-06-10T01:32:01;11.87;;;10.50;;
6689;SDS011;3382;51.576;8.076;2023-06-10T01:34:34;12.10;;;10.20;;
6689;SDS011;3382;51.576;8.076;2023-06-10T01:37:02;10.67;;;9.57;;
6689;SDS011;3382;51.576;8.076;2023-06-10T01:39:29;12.23;;;9.47;;
6689;SDS011;3382;51.576;8.076;2023-06-10T01:41:57;12.73;;;10.17;;
6689;SDS011;3382;51.576;8.076;2023-06-10T01:44:23;12.13;;;9.77;;
6689;SDS011;3382;51.576;8.076;2023-06-10T01:46:49;12.47;;;10.37;;
6689;SDS011;3382;51.576;8.076;2023-06-10T01:49:15;14.87;;;9.97;;
6689;SDS011;3382;51.576;8.076;2023-06-10T01:51:41;9.77;;;8.87;;
6689;SDS011;3382;51.576;8.076;2023-06-10T01:54:06;13.30;;;10.63;;
6689;SDS011;3382;51.576;8.076;2023-06-10T01:56:33;13.63;;;11.03;;
6689;SDS011;3382;51.576;8.076;2023-06-10T01:58:58;12.87;;;10.60;;
6689;SDS011;3382;51.576;8.076;2023-06-10T02:01:25;14.23;;;10.20;;
6689;SDS011;3382;51.576;8.076;2023-06-10T02:03:51;11.83;;;10.53;;
6689;SDS011;3382;51.576;8.076;2023-06-10T02:06:16;12.43;;;10.47;;
6689;SDS011;3382;51.576;8.076;2023-06-10T02:08:42;10.87;;;9.77;;
6689;SDS011;3382;51.576;8.076;2023-06-10T02:11:08;14.87;;;11.33;;
6689;SDS011;3382;51.576;8.076;2023-06-10T02:13:33;11.97;;;10.77;;
6689;SDS011;3382;51.576;8.076;2023-06-10T02:15:59;11.83;;;10.47;;
6689;SDS011;3382;51.576;8.076;2023-06-10T02:18:26;11.87;;;10.37;;
6689;SDS011;3382;51.576;8.076;2023-06-10T02:20:53;12.87;;;10.20;;
6689;SDS011;3382;51.576;8.076;2023-06-10T02:23:19;11.50;;;10.27;;
6689;SDS011;3382;51.576;8.076;2023-06-10T02:25:44;12.43;;;11.13;;
6689;SDS011;3382;51.576;8.076;2023-06-10T02:28:12;13.43;;;11.30;;
6689;SDS011;3382;51.576;8.076;2023-06-10T02:30:41;13.83;;;11.33;;
6689;SDS011;3382;51.576;8.076;2023-06-10T02:33:07;13.63;;;10.80;;
6689;SDS011;3382;51.576;8.076;2023-06-10T02:35:37;13.30;;;11.17;;
6689;SDS011;3382;51.576;8.076;2023-06-10T02:38:03;12.60;;;11.07;;
6689;SDS011;3382;51.576;8.076;2023-06-10T02:40:29;16.03;;;10.43;;
6689;SDS011;3382;51.576;8.076;2023-06-10T02:42:54;13.40;;;11.00;;
6689;SDS011;3382;51.576;8.076;2023-06-10T02:45:23;11.70;;;10.47;;
6689;SDS011;3382;51.576;8.076;2023-06-10T02:47:48;14.63;;;12.10;;
6689;SDS011;3382;51.576;8.076;2023-06-10T02:50:14;13.60;;;11.83;;
6689;SDS011;3382;51.576;8.076;2023-06-10T02:52:40;13.37;;;11.80;;
6689;SDS011;3382;51.576;8.076;2023-06-10T02:55:06;14.23;;;11.23;;
6689;SDS011;3382;51.576;8.076;2023-06-10T02:57:32;12.00;;;10.80;;
6689;SDS011;3382;51.576;8.076;2023-06-10T02:59:57;13.80;;;12.37;;
6689;SDS011;3382;51.576;8.076;2023-06-10T03:02:23;12.80;;;11.47;;
6689;SDS011;3382;51.576;8.076;2023-06-10T03:04:53;12.43;;;11.13;;
6689;SDS011;3382;51.576;8.076;2023-06-10T03:07:22;13.10;;;11.70;;
6689;SDS011;3382;51.576;8.076;2023-06-10T03:09:48;16.90;;;12.97;;
6689;SDS011;3382;51.576;8.076;2023-06-10T03:12:14;14.33;;;11.30;;
6689;SDS011;3382;51.576;8.076;2023-06-10T03:14:40;14.77;;;12.03;;
6689;SDS011;3382;51.576;8.076;2023-06-10T03:17:05;13.33;;;12.03;;
6689;SDS011;3382;51.576;8.076;2023-06-10T03:19:33;14.27;;;12.10;;
6689;SDS011;3382;51.576;8.076;2023-06-10T03:22:12;14.17;;;12.67;;
6689;SDS011;3382;51.576;8.076;2023-06-10T03:24:39;14.13;;;12.07;;
6689;SDS011;3382;51.576;8.076;2023-06-10T03:27:08;13.93;;;12.43;;
6689;SDS011;3382;51.576;8.076;2023-06-10T03:29:37;14.80;;;12.70;;
6689;SDS011;3382;51.576;8.076;2023-06-10T03:32:02;13.17;;;11.93;;
6689;SDS011;3382;51.576;8.076;2023-06-10T03:34:29;16.30;;;11.97;;
6689;SDS011;3382;51.576;8.076;2023-06-10T03:36:57;16.03;;;12.13;;
6689;SDS011;3382;51.576;8.076;2023-06-10T03:39:23;13.40;;;12.00;;
6689;SDS011;3382;51.576;8.076;2023-06-10T03:41:49;14.50;;;12.10;;
6689;SDS011;3382;51.576;8.076;2023-06-10T03:44:15;13.63;;;12.23;;
6689;SDS011;3382;51.576;8.076;2023-06-10T03:46:41;16.63;;;12.07;;
6689;SDS011;3382;51.576;8.076;2023-06-10T03:49:07;14.13;;;11.97;;
6689;SDS011;3382;51.576;8.076;2023-06-10T03:51:32;13.93;;;12.30;;
6689;SDS011;3382;51.576;8.076;2023-06-10T03:53:58;16.23;;;11.57;;
6689;SDS011;3382;51.576;8.076;2023-06-10T03:56:24;11.93;;;10.73;;
6689;SDS011;3382;51.576;8.076;2023-06-10T03:58:50;12.90;;;11.53;;
6689;SDS011;3382;51.576;8.076;2023-06-10T04:01:16;12.43;;;11.07;;
6689;SDS011;3382;51.576;8.076;2023-06-10T04:03:43;13.50;;;10.93;;
6689;SDS011;3382;51.576;8.076;2023-06-10T04:06:09;14.03;;;10.87;;
6689;SDS011;3382;51.576;8.076;2023-06-10T04:08:34;11.77;;;10.57;;
6689;SDS011;3382;51.576;8.076;2023-06-10T04:11:00;12.47;;;10.03;;
6689;SDS011;3382;51.576;8.076;2023-06-10T04:13:27;14.07;;;10.57;;
6689;SDS011;3382;51.576;8.076;2023-06-10T04:15:53;11.53;;;9.50;;
6689;SDS011;3382;51.576;8.076;2023-06-10T04:18:19;10.73;;;9.63;;
6689;SDS011;3382;51.576;8.076;2023-06-10T04:20:46;11.43;;;9.40;;
6689;SDS011;3382;51.576;8.076;2023-06-10T04:23:12;14.87;;;9.77;;
6689;SDS011;3382;51.576;8.076;2023-06-10T04:25:38;11.20;;;8.40;;
6689;SDS011;3382;51.576;8.076;2023-06-10T04:28:03;10.50;;;9.10;;
6689;SDS011;3382;51.576;8.076;2023-06-10T04:30:29;9.23;;;8.30;;
6689;SDS011;3382;51.576;8.076;2023-06-10T04:32:56;9.60;;;7.80;;
6689;SDS011;3382;51.576;8.076;2023-06-10T04:35:22;12.47;;;8.67;;
6689;SDS011;3382;51.576;8.076;2023-06-10T04:37:47;9.20;;;8.17;;
6689;SDS011;3382;51.576;8.076;2023-06-10T04:40:13;13.37;;;8.13;;
6689;SDS011;3382;51.576;8.076;2023-06-10T04:42:39;12.10;;;7.87;;
6689;SDS011;3382;51.576;8.076;2023-06-10T04:45:05;10.10;;;7.47;;
6689;SDS011;3382;51.576;8.076;2023-06-10T04:47:31;7.60;;;6.80;;
6689;SDS011;3382;51.576;8.076;2023-06-10T04:50:00;8.90;;;6.87;;
6689;SDS011;3382;51.576;8.076;2023-06-10T04:52:27;9.23;;;7.03;;
6689;SDS011;3382;51.576;8.076;2023-06-10T04:54:53;7.77;;;6.37;;
6689;SDS011;3382;51.576;8.076;2023-06-10T04:57:19;9.17;;;6.93;;
6689;SDS011;3382;51.576;8.076;2023-06-10T04:59:45;8.47;;;6.30;;
6689;SDS011;3382;51.576;8.076;2023-06-10T05:02:11;8.97;;;5.93;;
6689;SDS011;3382;51.576;8.076;2023-06-10T05:04:37;10.30;;;6.10;;
6689;SDS011;3382;51.576;8.076;2023-06-10T05:07:02;9.33;;;5.97;;
6689;SDS011;3382;51.576;8.076;2023-06-10T05:09:28;6.97;;;5.50;;
6689;SDS011;3382;51.576;8.076;2023-06-10T05:11:54;8.37;;;6.23;;
6689;SDS011;3382;51.576;8.076;2023-06-10T05:14:20;6.30;;;5.70;;
6689;SDS011;3382;51.576;8.076;2023-06-10T05:16:46;7.43;;;5.80;;
6689;SDS011;3382;51.576;8.076;2023-06-10T05:19:12;7.93;;;6.50;;
6689;SDS011;3382;51.576;8.076;2023-06-10T05:21:38;7.43;;;5.60;;
6689;SDS011;3382;51.576;8.076;2023-06-10T05:24:03;7.90;;;5.57;;
6689;SDS011;3382;51.576;8.076;2023-06-10T05:26:29;6.90;;;5.77;;
6689;SDS011;3382;51.576;8.076;2023-06-10T05:28:56;7.13;;;5.70;;
6689;SDS011;3382;51.576;8.076;2023-06-10T05:31:23;11.07;;;6.03;;
6689;SDS011;3382;51.576;8.076;2023-06-10T05:33:48;9.83;;;6.30;;
6689;SDS011;3382;51.576;8.076;2023-06-10T05:36:14;8.10;;;5.50;;
6689;SDS011;3382;51.576;8.076;2023-06-10T05:38:39;7.20;;;5.93;;
6689;SDS011;3382;51.576;8.076;2023-06-10T05:41:05;10.73;;;6.10;;
6689;SDS011;3382;51.576;8.076;2023-06-10T05:43:31;10.80;;;6.13;;
6689;SDS011;3382;51.576;8.076;2023-06-10T05:45:56;4.73;;;4.33;;
6689;SDS011;3382;51.576;8.076;2023-06-10T05:48:22;9.27;;;5.07;;
6689;SDS011;3382;51.576;8.076;2023-06-10T05:50:48;7.70;;;6.20;;
6689;SDS011;3382;51.576;8.076;2023-06-10T05:53:14;7.80;;;5.57;;
6689;SDS011;3382;51.576;8.076;2023-06-10T05:55:41;10.93;;;6.70;;
6689;SDS011;3382;51.576;8.076;2023-06-10T05:58:08;8.40;;;5.47;;
6689;SDS011;3382;51.576;8.076;2023-06-10T06:00:34;7.53;;;6.10;;
6689;SDS011;3382;51.576;8.076;2023-06-10T06:02:59;9.83;;;5.90;;
6689;SDS011;3382;51.576;8.076;2023-06-10T06:05:25;11.17;;;5.90;;
6689;SDS011;3382;51.576;8.076;2023-06-10T06:07:50;7.57;;;5.40;;
6689;SDS011;3382;51.576;8.076;2023-06-10T06:10:17;7.40;;;5.23;;
6689;SDS011;3382;51.576;8.076;2023-06-10T06:12:43;6.17;;;4.73;;
6689;SDS011;3382;51.576;8.076;2023-06-10T06:15:09;6.73;;;4.77;;
6689;SDS011;3382;51.576;8.076;2023-06-10T06:17:35;9.57;;;5.37;;
6689;SDS011;3382;51.576;8.076;2023-06-10T06:20:02;5.40;;;4.40;;
6689;SDS011;3382;51.576;8.076;2023-06-10T06:22:28;7.67;;;4.50;;
6689;SDS011;3382;51.576;8.076;2023-06-10T06:24:53;6.77;;;4.73;;
6689;SDS011;3382;51.576;8.076;2023-06-10T06:27:19;9.07;;;4.87;;
6689;SDS011;3382;51.576;8.076;2023-06-10T06:29:46;7.40;;;4.70;;
6689;SDS011;3382;51.576;8.076;2023-06-10T06:32:12;11.20;;;4.83;;
6689;SDS011;3382;51.576;8.076;2023-06-10T06:34:37;10.27;;;4.87;;
6689;SDS011;3382;51.576;8.076;2023-06-10T06:37:03;5.77;;;4.30;;
6689;SDS011;3382;51.576;8.076;2023-06-10T06:39:29;8.33;;;4.33;;
6689;SDS011;3382;51.576;8.076;2023-06-10T06:41:55;6.67;;;5.00;;
6689;SDS011;3382;51.576;8.076;2023-06-10T06:44:20;5.67;;;4.43;;
6689;SDS011;3382;51.576;8.076;2023-06-10T06:46:46;6.40;;;4.50;;
6689;SDS011;3382;51.576;8.076;2023-06-10T06:49:11;7.30;;;4.17;;
6689;SDS011;3382;51.576;8.076;2023-06-10T06:51:37;8.90;;;4.37;;
6689;SDS011;3382;51.576;8.076;2023-06-10T06:54:03;5.83;;;4.60;;
6689;SDS011;3382;51.576;8.076;2023-06-10T06:56:30;6.03;;;4.30;;
6689;SDS011;3382;51.576;8.076;2023-06-10T06:58:56;5.13;;;4.03;;
6689;SDS011;3382;51.576;8.076;2023-06-10T07:01:21;6.27;;;3.97;;
6689;SDS011;3382;51.576;8.076;2023-06-10T07:03:47;6.20;;;4.20;;
6689;SDS011;3382;51.576;8.076;2023-06-10T07:06:13;6.73;;;4.10;;
6689;SDS011;3382;51.576;8.076;2023-06-10T07:08:38;6.37;;;4.10;;
6689;SDS011;3382;51.576;8.076;2023-06-10T07:11:04;9.13;;;4.27;;
6689;SDS011;3382;51.576;8.076;2023-06-10T07:13:29;6.10;;;4.23;;
6689;SDS011;3382;51.576;8.076;2023-06-10T07:15:55;6.57;;;3.87;;
6689;SDS011;3382;51.576;8.076;2023-06-10T07:18:24;6.50;;;3.73;;
6689;SDS011;3382;51.576;8.076;2023-06-10T07:20:49;6.83;;;4.50;;
6689;SDS011;3382;51.576;8.076;2023-06-10T07:23:15;7.03;;;4.20;;
6689;SDS011;3382;51.576;8.076;2023-06-10T07:25:41;6.90;;;3.37;;
6689;SDS011;3382;51.576;8.076;2023-06-10T07:28:07;9.07;;;4.37;;
6689;SDS011;3382;51.576;8.076;2023-06-10T07:30:32;5.27;;;4.13;;
6689;SDS011;3382;51.576;8.076;2023-06-10T07:32:58;4.93;;;4.40;;
6689;SDS011;3382;51.576;8.076;2023-06-10T07:35:24;6.80;;;4.47;;
6689;SDS011;3382;51.576;8.076;2023-06-10T07:37:49;7.20;;;4.57;;
6689;SDS011;3382;51.576;8.076;2023-06-10T07:40:15;8.43;;;4.13;;
6689;SDS011;3382;51.576;8.076;2023-06-10T07:42:40;9.13;;;3.93;;
6689;SDS011;3382;51.576;8.076;2023-06-10T07:45:07;4.23;;;3.83;;
6689;SDS011;3382;51.576;8.076;2023-06-10T07:47:33;7.40;;;3.80;;
6689;SDS011;3382;51.576;8.076;2023-06-10T07:49:59;7.70;;;3.90;;
6689;SDS011;3382;51.576;8.076;2023-06-10T07:52:25;9.40;;;4.33;;
6689;SDS011;3382;51.576;8.076;2023-06-10T07:54:51;6.87;;;3.87;;
6689;SDS011;3382;51.576;8.076;2023-06-10T07:57:17;5.23;;;3.87;;
6689;SDS011;3382;51.576;8.076;2023-06-10T07:59:43;5.13;;;3.33;;
6689;SDS011;3382;51.576;8.076;2023-06-10T08:02:09;4.03;;;3.50;;
6689;SDS011;3382;51.576;8.076;2023-06-10T08:04:35;7.57;;;3.47;;
6689;SDS011;3382;51.576;8.076;2023-06-10T08:07:00;7.43;;;3.90;;
6689;SDS011;3382;51.576;8.076;2023-06-10T08:09:27;6.60;;;4.20;;
6689;SDS011;3382;51.576;8.076;2023-06-10T08:11:53;4.27;;;3.40;;
6689;SDS011;3382;51.576;8.076;2023-06-10T08:14:18;4.80;;;3.23;;
6689;SDS011;3382;51.576;8.076;2023-06-10T08:16:44;6.83;;;3.83;;
6689;SDS011;3382;51.576;8.076;2023-06-10T08:19:10;6.40;;;3.80;;
6689;SDS011;3382;51.576;8.076;2023-06-10T08:21:36;7.03;;;3.70;;
6689;SDS011;3382;51.576;8.076;2023-06-10T08:24:04;4.87;;;3.67;;
6689;SDS011;3382;51.576;8.076;2023-06-10T08:26:34;6.23;;;3.73;;
6689;SDS011;3382;51.576;8.076;2023-06-10T08:28:59;5.60;;;3.60;;
6689;SDS011;3382;51.576;8.076;2023-06-10T08:31:25;5.97;;;3.83;;
6689;SDS011;3382;51.576;8.076;2023-06-10T08:33:50;4.10;;;3.50;;
6689;SDS011;3382;51.576;8.076;2023-06-10T08:36:16;4.43;;;3.53;;
6689;SDS011;3382;51.576;8.076;2023-06-10T08:38:42;7.27;;;4.07;;
6689;SDS011;3382;51.576;8.076;2023-06-10T08:41:07;5.80;;;3.67;;
6689;SDS011;3382;51.576;8.076;2023-06-10T08:43:54;6.17;;;3.70;;
6689;SDS011;3382;51.576;8.076;2023-06-10T08:46:34;6.30;;;3.50;;
6689;SDS011;3382;51.576;8.076;2023-06-10T08:49:02;6.00;;;3.73;;
6689;SDS011;3382;51.576;8.076;2023-06-10T08:51:30;5.23;;;3.70;;
6689;SDS011;3382;51.576;8.076;2023-06-10T08:54:01;6.30;;;3.53;;
6689;SDS011;3382;51.576;8.076;2023-06-10T08:56:30;7.80;;;3.77;;
6689;SDS011;3382;51.576;8.076;2023-06-10T08:58:59;6.47;;;4.03;;
6689;SDS011;3382;51.576;8.076;2023-06-10T09:01:25;5.73;;;3.67;;
6689;SDS011;3382;51.576;8.076;2023-06-10T09:03:52;3.47;;;3.17;;
6689;SDS011;3382;51.576;8.076;2023-06-10T09:06:17;5.53;;;3.53;;
6689;SDS011;3382;51.576;8.076;2023-06-10T09:08:43;5.57;;;3.53;;
6689;SDS011;3382;51.576;8.076;2023-06-10T09:11:09;4.37;;;3.30;;
6689;SDS011;3382;51.576;8.076;2023-06-10T09:13:35;3.97;;;3.40;;
6689;SDS011;3382;51.576;8.076;2023-06-10T09:16:00;6.37;;;3.33;;
6689;SDS011;3382;51.576;8.076;2023-06-10T09:18:27;6.73;;;3.47;;
6689;SDS011;3382;51.576;8.076;2023-06-10T09:20:53;4.43;;;3.70;;
6689;SDS011;3382;51.576;8.076;2023-06-10T09:23:19;5.80;;;3.17;;
6689;SDS011;3382;51.576;8.076;2023-06-10T09:25:44;4.63;;;3.53;;
6689;SDS011;3382;51.576;8.076;2023-06-10T09:28:14;5.20;;;3.63;;
6689;SDS011;3382;51.576;8.076;2023-06-10T09:30:40;7.50;;;3.50;;
6689;SDS011;3382;51.576;8.076;2023-06-10T09:33:10;6.57;;;3.50;;
6689;SDS011;3382;51.576;8.076;2023-06-10T09:35:37;10.20;;;3.60;;
6689;SDS011;3382;51.576;8.076;2023-06-10T09:38:10;4.93;;;3.70;;
6689;SDS011;3382;51.576;8.076;2023-06-10T09:40:48;4.10;;;3.70;;
6689;SDS011;3382;51.576;8.076;2023-06-10T09:43:17;6.60;;;3.80;;
6689;SDS011;3382;51.576;8.076;2023-06-10T09:45:43;6.47;;;3.50;;
6689;SDS011;3382;51.576;8.076;2023-06-10T09:48:09;4.33;;;3.50;;
6689;SDS011;3382;51.576;8.076;2023-06-10T09:50:41;5.63;;;3.90;;
6689;SDS011;3382;51.576;8.076;2023-06-10T09:53:09;6.27;;;3.77;;
6689;SDS011;3382;51.576;8.076;2023-06-10T09:55:37;4.13;;;3.63;;
6689;SDS011;3382;51.576;8.076;2023-06-10T09:58:03;4.60;;;3.40;;
6689;SDS011;3382;51.576;8.076;2023-06-10T10:00:31;5.03;;;3.50;;
6689;SDS011;3382;51.576;8.076;2023-06-10T10:02:57;4.13;;;3.70;;
6689;SDS011;3382;51.576;8.076;2023-06-10T10:05:23;5.77;;;3.33;;
6689;SDS011;3382;51.576;8.076;2023-06-10T10:07:49;5.10;;;3.47;;
6689;SDS011;3382;51.576;8.076;2023-06-10T10:10:16;8.10;;;4.00;;
6689;SDS011;3382;51.576;8.076;2023-06-10T10:12:43;5.87;;;3.50;;
6689;SDS011;3382;51.576;8.076;2023-06-10T10:15:11;5.50;;;3.67;;
6689;SDS011;3382;51.576;8.076;2023-06-10T10:17:38;5.47;;;3.43;;
6689;SDS011;3382;51.576;8.076;2023-06-10T10:20:08;4.93;;;3.87;;
6689;SDS011;3382;51.576;8.076;2023-06-10T10:22:38;4.57;;;3.87;;
6689;SDS011;3382;51.576;8.076;2023-06-10T10:25:08;6.35;;;4.28;;
6689;SDS011;3382;51.576;8.076;2023-06-10T10:28:02;4.95;;;3.17;;
6689;SDS011;3382;51.576;8.076;2023-06-10T10:30:54;5.70;;;3.60;;
6689;SDS011;3382;51.576;8.076;2023-06-10T10:33:25;4.00;;;3.60;;
6689;SDS011;3382;51.576;8.076;2023-06-10T10:35:58;4.30;;;3.25;;
6689;SDS011;3382;51.576;8.076;2023-06-10T10:38:24;7.47;;;3.70;;
6689;SDS011;3382;51.576;8.076;2023-06-10T10:40:50;4.32;;;3.55;;
6689;SDS011;3382;51.576;8.076;2023-06-10T10:43:16;4.40;;;3.80;;
6689;SDS011;3382;51.576;8.076;2023-06-10T10:45:44;4.93;;;3.67;;
6689;SDS011;3382;51.576;8.076;2023-06-10T10:48:35;5.38;;;3.65;;
6689;SDS011;3382;51.576;8.076;2023-06-10T10:51:03;3.90;;;3.50;;
6689;SDS011;3382;51.576;8.076;2023-06-10T10:53:29;5.32;;;3.58;;
6689;SDS011;3382;51.576;8.076;2023-06-10T10:56:03;5.53;;;4.07;;
6689;SDS011;3382;51.576;8.076;2023-06-10T10:58:37;4.15;;;3.75;;
6689;SDS011;3382;51.576;8.076;2023-06-10T11:01:12;4.72;;;3.70;;
6689;SDS011;3382;51.576;8.076;2023-06-10T11:03:45;5.78;;;3.83;;
6689;SDS011;3382;51.576;8.076;2023-06-10T11:06:15;4.32;;;3.78;;
6689;SDS011;3382;51.576;8.076;2023-06-10T11:11:20;6.00;;;3.00;;
6689;SDS011;3382;51.576;8.076;2023-06-10T11:14:25;4.30;;;3.70;;
6689;SDS011;3382;51.576;8.076;2023-06-10T11:16:53;3.35;;;2.75;;
6689;SDS011;3382;51.576;8.076;2023-06-10T11:19:31;6.35;;;3.35;;
6689;SDS011;3382;51.576;8.076;2023-06-10T11:22:00;5.97;;;3.85;;
6689;SDS011;3382;51.576;8.076;2023-06-10T11:24:28;4.32;;;3.72;;
6689;SDS011;3382;51.576;8.076;2023-06-10T11:26:55;4.20;;;3.80;;
6689;SDS011;3382;51.576;8.076;2023-06-10T11:32:30;5.70;;;3.55;;
6689;SDS011;3382;51.576;8.076;2023-06-10T11:34:58;7.38;;;4.18;;
6689;SDS011;3382;51.576;8.076;2023-06-10T11:37:24;4.20;;;3.63;;
6689;SDS011;3382;51.576;8.076;2023-06-10T11:39:56;4.43;;;3.40;;
6689;SDS011;3382;51.576;8.076;2023-06-10T11:42:23;4.70;;;4.00;;
6689;SDS011;3382;51.576;8.076;2023-06-10T11:44:49;6.82;;;3.88;;
6689;SDS011;3382;51.576;8.076;2023-06-10T11:47:16;6.20;;;3.97;;
6689;SDS011;3382;51.576;8.076;2023-06-10T11:49:43;6.22;;;3.45;;
6689;SDS011;3382;51.576;8.076;2023-06-10T11:52:12;3.15;;;2.85;;
6689;SDS011;3382;51.576;8.076;2023-06-10T11:54:38;4.93;;;3.88;;
6689;SDS011;3382;51.576;8.076;2023-06-10T11:57:04;6.30;;;4.13;;
6689;SDS011;3382;51.576;8.076;2023-06-10T11:59:30;4.45;;;3.60;;
6689;SDS011;3382;51.576;8.076;2023-06-10T12:01:56;7.70;;;4.10;;
6689;SDS011;3382;51.576;8.076;2023-06-10T12:04:22;4.87;;;3.30;;
6689;SDS011;3382;51.576;8.076;2023-06-10T12:06:53;6.50;;;3.65;;
6689;SDS011;3382;51.576;8.076;2023-06-10T12:09:26;5.07;;;3.50;;
6689;SDS011;3382;51.576;8.076;2023-06-10T12:20:02;4.57;;;3.78;;
6689;SDS011;3382;51.576;8.076;2023-06-10T12:22:36;3.90;;;3.60;;
6689;SDS011;3382;51.576;8.076;2023-06-10T12:25:06;5.88;;;3.92;;
6689;SDS011;3382;51.576;8.076;2023-06-10T12:27:34;5.95;;;3.95;;
6689;SDS011;3382;51.576;8.076;2023-06-10T12:30:02;5.40;;;4.07;;
6689;SDS011;3382;51.576;8.076;2023-06-10T12:33:02;4.95;;;4.30;;
6689;SDS011;3382;51.576;8.076;2023-06-10T12:35:22;4.47;;;4.07;;
6689;SDS011;3382;51.576;8.076;2023-06-10T12:37:55;5.45;;;3.90;;
6689;SDS011;3382;51.576;8.076;2023-06-10T12:40:32;4.93;;;4.28;;
6689;SDS011;3382;51.576;8.076;2023-06-10T12:43:08;7.32;;;4.07;;
6689;SDS011;3382;51.576;8.076;2023-06-10T12:48:04;4.57;;;3.95;;
6689;SDS011;3382;51.576;8.076;2023-06-10T12:50:35;4.32;;;3.75;;
6689;SDS011;3382;51.576;8.076;2023-06-10T12:53:04;6.40;;;4.32;;
6689;SDS011;3382;51.576;8.076;2023-06-10T12:55:30;4.57;;;3.72;;
6689;SDS011;3382;51.576;8.076;2023-06-10T12:57:57;4.20;;;3.80;;
6689;SDS011;3382;51.576;8.076;2023-06-10T13:00:23;6.72;;;3.97;;
6689;SDS011;3382;51.576;8.076;2023-06-10T13:02:51;5.30;;;3.85;;
6689;SDS011;3382;51.576;8.076;2023-06-10T13:05:18;9.35;;;3.92;;
6689;SDS011;3382;51.576;8.076;2023-06-10T13:07:44;3.88;;;3.47;;
6689;SDS011;3382;51.576;8.076;2023-06-10T13:10:10;5.03;;;3.78;;
6689;SDS011;3382;51.576;8.076;2023-06-10T13:12:35;5.43;;;4.00;;
6689;SDS011;3382;51.576;8.076;2023-06-10T13:15:01;7.10;;;3.83;;
6689;SDS011;3382;51.576;8.076;2023-06-10T13:17:27;5.00;;;4.07;;
6689;SDS011;3382;51.576;8.076;2023-06-10T13:19:53;4.32;;;3.65;;
6689;SDS011;3382;51.576;8.076;2023-06-10T13:22:19;6.30;;;3.72;;
6689;SDS011;3382;51.576;8.076;2023-06-10T13:24:45;7.03;;;4.25;;
6689;SDS011;3382;51.576;8.076;2023-06-10T13:27:11;6.50;;;4.00;;
6689;SDS011;3382;51.576;8.076;2023-06-10T13:29:39;5.53;;;3.75;;
6689;SDS011;3382;51.576;8.076;2023-06-10T13:32:05;6.68;;;3.85;;
6689;SDS011;3382;51.576;8.076;2023-06-10T13:34:31;4.75;;;3.47;;
6689;SDS011;3382;51.576;8.076;2023-06-10T13:36:57;5.30;;;4.40;;
6689;SDS011;3382;51.576;8.076;2023-06-10T13:39:23;5.72;;;3.03;;
6689;SDS011;3382;51.576;8.076;2023-06-10T13:41:49;4.75;;;3.72;;
6689;SDS011;3382;51.576;8.076;2023-06-10T13:44:14;5.18;;;3.80;;
6689;SDS011;3382;51.576;8.076;2023-06-10T13:46:40;6.70;;;3.60;;
6689;SDS011;3382;51.576;8.076;2023-06-10T13:49:05;4.68;;;4.15;;
6689;SDS011;3382;51.576;8.076;2023-06-10T13:51:31;5.15;;;3.97;;
6689;SDS011;3382;51.576;8.076;2023-06-10T13:53:57;4.78;;;3.67;;
6689;SDS011;3382;51.576;8.076;2023-06-10T13:56:22;3.75;;;2.78;;
6689;SDS011;3382;51.576;8.076;2023-06-10T13:58:48;3.60;;;2.97;;
6689;SDS011;3382;51.576;8.076;2023-06-10T14:01:13;3.92;;;3.55;;
6689;SDS011;3382;51.576;8.076;2023-06-10T14:03:39;4.25;;;3.83;;
6689;SDS011;3382;51.576;8.076;2023-06-10T14:06:05;4.25;;;3.85;;
6689;SDS011;3382;51.576;8.076;2023-06-10T14:08:30;4.28;;;3.60;;
6689;SDS011;3382;51.576;8.076;2023-06-10T14:10:56;4.63;;;3.90;;
6689;SDS011;3382;51.576;8.076;2023-06-10T14:13:22;6.47;;;3.95;;
6689;SDS011;3382;51.576;8.076;2023-06-10T14:15:47;5.65;;;3.70;;
6689;SDS011;3382;51.576;8.076;2023-06-10T14:18:13;5.35;;;3.25;;
6689;SDS011;3382;51.576;8.076;2023-06-10T14:20:39;3.85;;;3.55;;
6689;SDS011;3382;51.576;8.076;2023-06-10T14:23:04;5.20;;;3.28;;
6689;SDS011;3382;51.576;8.076;2023-06-10T14:25:30;4.47;;;3.17;;
6689;SDS011;3382;51.576;8.076;2023-06-10T14:27:55;5.68;;;3.55;;
6689;SDS011;3382;51.576;8.076;2023-06-10T14:30:22;5.78;;;4.05;;
6689;SDS011;3382;51.576;8.076;2023-06-10T14:32:48;4.87;;;3.23;;
6689;SDS011;3382;51.576;8.076;2023-06-10T14:35:13;4.47;;;4.05;;
6689;SDS011;3382;51.576;8.076;2023-06-10T14:37:39;6.53;;;3.97;;
6689;SDS011;3382;51.576;8.076;2023-06-10T14:40:05;4.60;;;3.65;;
6689;SDS011;3382;51.576;8.076;2023-06-10T14:42:31;5.80;;;4.15;;
6689;SDS011;3382;51.576;8.076;2023-06-10T14:44:59;5.82;;;4.03;;
6689;SDS011;3382;51.576;8.076;2023-06-10T14:47:25;5.47;;;3.40;;
6689;SDS011;3382;51.576;8.076;2023-06-10T14:49:51;6.22;;;3.80;;
6689;SDS011;3382;51.576;8.076;2023-06-10T14:52:16;5.03;;;3.72;;
6689;SDS011;3382;51.576;8.076;2023-06-10T14:54:42;6.55;;;3.22;;
6689;SDS011;3382;51.576;8.076;2023-06-10T14:57:07;7.68;;;3.50;;
6689;SDS011;3382;51.576;8.076;2023-06-10T14:59:33;3.95;;;3.42;;
6689;SDS011;3382;51.576;8.076;2023-06-10T15:01:59;6.28;;;3.33;;
6689;SDS011;3382;51.576;8.076;2023-06-10T15:04:26;6.13;;;3.88;;
6689;SDS011;3382;51.576;8.076;2023-06-10T15:06:52;4.95;;;3.63;;
6689;SDS011;3382;51.576;8.076;2023-06-10T15:09:17;5.65;;;3.90;;
6689;SDS011;3382;51.576;8.076;2023-06-10T15:11:43;4.18;;;3.20;;
6689;SDS011;3382;51.576;8.076;2023-06-10T15:14:09;5.32;;;3.58;;
6689;SDS011;3382;51.576;8.076;2023-06-10T15:16:34;5.15;;;3.60;;
6689;SDS011;3382;51.576;8.076;2023-06-10T15:19:00;6.20;;;3.88;;
6689;SDS011;3382;51.576;8.076;2023-06-10T15:21:26;4.10;;;3.70;;
6689;SDS011;3382;51.576;8.076;2023-06-10T15:23:51;7.47;;;3.90;;
6689;SDS011;3382;51.576;8.076;2023-06-10T15:26:18;7.45;;;3.28;;
6689;SDS011;3382;51.576;8.076;2023-06-10T15:28:43;4.45;;;3.97;;